Ikan Bagat — 3EYX8 — position and weather

sailwx.info

Track history (hours):
 
Tides and Currents Weather Stations Pressure Air Temp Water Temp Dewpoint Dewpoint Depression Visibility Wind Speed Wind Dir Waves Ship Positions

Ikan Bagat

Last reported at 2016-Feb-09 21:08 UTC. Time now 2016-Feb-10 04:38 UTC.
Position N 34°33' E 134°45'.

Length 229 m; draft 10.6 m.

Type: Ship. MMSI: 354375000.

Date/timePositionNaut miles runAvg speedWind from/ knotsBaromVisibWave heightAir tempDewpointWater temp
2016-Feb-09 21:08N 34°33' E 134°45'813.7
2016-Feb-09 20:31N 34°36' E 134°55'9 9.5
2016-Feb-09 19:33N 34°35' E 135°06'6 5.7
2016-Feb-09 18:34N 34°30' E 135°06'1211.6
2016-Feb-09 17:34N 34°19' E 135°00'10 9.8
2016-Feb-09 16:33N 34°09' E 134°60'1010.0
2016-Feb-09 15:33N 33°59' E 134°58'241 6.3
2016-Feb-08 01:30N 35°04' E 139°40'1010.8
2016-Feb-08 00:33N 35°13' E 139°46'1211.8
2016-Feb-07 23:33N 35°24' E 139°43'4 4.3
2016-Feb-07 22:31N 35°29' E 139°44'0 0.0
2016-Feb-07 21:31N 35°29' E 139°44'0 0.0
2016-Feb-07 20:31N 35°29' E 139°44'0 0.0
2016-Feb-07 19:31N 35°29' E 139°44'0 0.0
2016-Feb-07 18:31N 35°29' E 139°44'0 0.0
2016-Feb-07 17:31N 35°29' E 139°44'0 0.0
2016-Feb-07 16:31N 35°29' E 139°44'0 0.0
2016-Feb-07 15:31N 35°29' E 139°44'0 0.0
2016-Feb-07 14:28N 35°29' E 139°44'0 0.0
2016-Feb-07 13:31N 35°29' E 139°44'0 0.0
2016-Feb-07 12:31N 35°29' E 139°44'0 0.0
2016-Feb-07 11:31N 35°29' E 139°44'0 0.0
2016-Feb-07 10:31N 35°29' E 139°44'0 0.0
2016-Feb-07 09:31N 35°29' E 139°44'0 0.0
2016-Feb-07 08:31N 35°29' E 139°44'0 0.0
2016-Feb-07 07:31N 35°29' E 139°44'0 0.0
2016-Feb-07 06:31N 35°29' E 139°44'0 0.0
2016-Feb-07 05:31N 35°29' E 139°44'0 0.0
2016-Feb-07 04:31N 35°29' E 139°44'0 0.0
2016-Feb-07 03:31N 35°29' E 139°44'0 0.0
2016-Feb-07 02:31N 35°29' E 139°44'0 0.0
2016-Feb-07 01:31N 35°29' E 139°44'0 0.0
2016-Feb-07 00:31N 35°29' E 139°44'0 0.0
2016-Feb-06 23:31N 35°29' E 139°44'0 0.0
2016-Feb-06 22:31N 35°29' E 139°44'0 0.0
2016-Feb-06 21:31N 35°29' E 139°44'0 0.0
2016-Feb-06 20:31N 35°29' E 139°44'0 0.0
2016-Feb-06 19:31N 35°29' E 139°44'0 0.0
2016-Feb-06 18:31N 35°29' E 139°44'0 0.0
2016-Feb-06 17:31N 35°29' E 139°44'0 0.0
2016-Feb-06 16:31N 35°29' E 139°44'0 0.0
2016-Feb-06 15:31N 35°29' E 139°44'0 0.0
2016-Feb-06 14:31N 35°29' E 139°44'0 0.0
2016-Feb-06 13:31N 35°29' E 139°44'0 0.0
2016-Feb-06 12:31N 35°29' E 139°44'0 0.0
2016-Feb-06 11:31N 35°29' E 139°44'0 0.0
2016-Feb-06 10:31N 35°29' E 139°44'0 0.0
2016-Feb-06 09:31N 35°29' E 139°44'0 0.0
2016-Feb-06 08:31N 35°29' E 139°44'0 0.0
2016-Feb-06 07:31N 35°29' E 139°44'0 0.0
2016-Feb-06 06:31N 35°29' E 139°44'0 0.0
2016-Feb-06 05:31N 35°29' E 139°44'0 0.0
2016-Feb-06 04:31N 35°29' E 139°44'0 0.0
2016-Feb-06 03:31N 35°29' E 139°44'0 0.0
2016-Feb-06 02:31N 35°29' E 139°44'0 0.0
2016-Feb-06 01:31N 35°29' E 139°44'0 0.0
2016-Feb-06 00:31N 35°29' E 139°44'0 0.0
2016-Feb-05 23:32N 35°29' E 139°44'2 2.3
2016-Feb-05 22:33N 35°27' E 139°45'0 0.2
2016-Feb-05 21:32N 35°26' E 139°45'0 0.1
2016-Feb-05 20:32N 35°27' E 139°45'0 0.1
2016-Feb-05 19:32N 35°27' E 139°45'0 0.0
2016-Feb-05 18:32N 35°27' E 139°45'0 0.0
2016-Feb-05 17:32N 35°27' E 139°45'0 0.0
2016-Feb-05 16:32N 35°27' E 139°45'0 0.1
2016-Feb-05 15:32N 35°27' E 139°45'0 0.0
2016-Feb-05 14:32N 35°27' E 139°45'0 0.1
2016-Feb-05 13:32N 35°27' E 139°45'0 0.2
2016-Feb-05 12:32N 35°26' E 139°45'0 0.0
2016-Feb-05 11:32N 35°26' E 139°45'0 0.0
2016-Feb-05 10:32N 35°26' E 139°45'0 0.0
2016-Feb-05 09:32N 35°27' E 139°45'0 0.1
2016-Feb-05 08:32N 35°27' E 139°45'0 0.0
2016-Feb-05 07:29N 35°27' E 139°45'0 0.0
2016-Feb-05 06:32N 35°27' E 139°45'0 0.0
2016-Feb-05 05:32N 35°27' E 139°45'0 0.0
2016-Feb-05 04:32N 35°27' E 139°45'0 0.0
2016-Feb-05 03:32N 35°27' E 139°45'0 0.0
2016-Feb-05 02:32N 35°27' E 139°45'0 0.0
2016-Feb-05 01:32N 35°27' E 139°45'0 0.1
2016-Feb-05 00:32N 35°26' E 139°45'1 1.3
2016-Feb-04 23:33N 35°25' E 139°46'8 8.5
2016-Feb-04 22:34N 35°17' E 139°45'9 9.3
2016-Feb-04 21:33N 35°08' E 139°46'7 7.3
2016-Feb-04 20:33N 35°02' E 139°40'7 6.8
2016-Feb-04 19:29N 34°58' E 139°32'8 8.0
2016-Feb-04 18:32N 34°54' E 139°24'  
Track history (hours):
 
Tides and Currents Weather Stations Pressure Air Temp Water Temp Dewpoint Dewpoint Depression Visibility Wind Speed Wind Dir Waves Ship Positions

Ikan Bagat

Last reported at 2016-Feb-09 21:08 UTC. Time now 2016-Feb-10 04:38 UTC.
Position N 34°33' E 134°45'.

Length 229 m; draft 10.6 m.

Type: Ship. MMSI: 354375000.

Date/timePositionNaut miles runAvg speedWind from/ knotsBaromVisibWave heightAir tempDewpointWater temp
2016-Feb-09 21:08N 34°33' E 134°45'813.7
2016-Feb-09 20:31N 34°36' E 134°55'9 9.5
2016-Feb-09 19:33N 34°35' E 135°06'6 5.7
2016-Feb-09 18:34N 34°30' E 135°06'1211.6
2016-Feb-09 17:34N 34°19' E 135°00'10 9.8
2016-Feb-09 16:33N 34°09' E 134°60'1010.0
2016-Feb-09 15:33N 33°59' E 134°58'241 6.3
2016-Feb-08 01:30N 35°04' E 139°40'1010.8
2016-Feb-08 00:33N 35°13' E 139°46'1211.8
2016-Feb-07 23:33N 35°24' E 139°43'4 4.3
2016-Feb-07 22:31N 35°29' E 139°44'0 0.0
2016-Feb-07 21:31N 35°29' E 139°44'0 0.0
2016-Feb-07 20:31N 35°29' E 139°44'0 0.0
2016-Feb-07 19:31N 35°29' E 139°44'0 0.0
2016-Feb-07 18:31N 35°29' E 139°44'0 0.0
2016-Feb-07 17:31N 35°29' E 139°44'0 0.0
2016-Feb-07 16:31N 35°29' E 139°44'0 0.0
2016-Feb-07 15:31N 35°29' E 139°44'0 0.0
2016-Feb-07 14:28N 35°29' E 139°44'0 0.0
2016-Feb-07 13:31N 35°29' E 139°44'0 0.0
2016-Feb-07 12:31N 35°29' E 139°44'0 0.0
2016-Feb-07 11:31N 35°29' E 139°44'0 0.0
2016-Feb-07 10:31N 35°29' E 139°44'0 0.0
2016-Feb-07 09:31N 35°29' E 139°44'0 0.0
2016-Feb-07 08:31N 35°29' E 139°44'0 0.0
2016-Feb-07 07:31N 35°29' E 139°44'0 0.0
2016-Feb-07 06:31N 35°29' E 139°44'0 0.0
2016-Feb-07 05:31N 35°29' E 139°44'0 0.0
2016-Feb-07 04:31N 35°29' E 139°44'0 0.0
2016-Feb-07 03:31N 35°29' E 139°44'0 0.0
2016-Feb-07 02:31N 35°29' E 139°44'0 0.0
2016-Feb-07 01:31N 35°29' E 139°44'0 0.0
2016-Feb-07 00:31N 35°29' E 139°44'0 0.0
2016-Feb-06 23:31N 35°29' E 139°44'0 0.0
2016-Feb-06 22:31N 35°29' E 139°44'0 0.0
2016-Feb-06 21:31N 35°29' E 139°44'0 0.0
2016-Feb-06 20:31N 35°29' E 139°44'0 0.0
2016-Feb-06 19:31N 35°29' E 139°44'0 0.0
2016-Feb-06 18:31N 35°29' E 139°44'0 0.0
2016-Feb-06 17:31N 35°29' E 139°44'0 0.0
2016-Feb-06 16:31N 35°29' E 139°44'0 0.0
2016-Feb-06 15:31N 35°29' E 139°44'0 0.0
2016-Feb-06 14:31N 35°29' E 139°44'0 0.0
2016-Feb-06 13:31N 35°29' E 139°44'0 0.0
2016-Feb-06 12:31N 35°29' E 139°44'0 0.0
2016-Feb-06 11:31N 35°29' E 139°44'0 0.0
2016-Feb-06 10:31N 35°29' E 139°44'0 0.0
2016-Feb-06 09:31N 35°29' E 139°44'0 0.0
2016-Feb-06 08:31N 35°29' E 139°44'0 0.0
2016-Feb-06 07:31N 35°29' E 139°44'0 0.0
2016-Feb-06 06:31N 35°29' E 139°44'0 0.0
2016-Feb-06 05:31N 35°29' E 139°44'0 0.0
2016-Feb-06 04:31N 35°29' E 139°44'0 0.0
2016-Feb-06 03:31N 35°29' E 139°44'0 0.0
2016-Feb-06 02:31N 35°29' E 139°44'0 0.0
2016-Feb-06 01:31N 35°29' E 139°44'0 0.0
2016-Feb-06 00:31N 35°29' E 139°44'0 0.0
2016-Feb-05 23:32N 35°29' E 139°44'2 2.3
2016-Feb-05 22:33N 35°27' E 139°45'0 0.2
2016-Feb-05 21:32N 35°26' E 139°45'0 0.1
2016-Feb-05 20:32N 35°27' E 139°45'0 0.1
2016-Feb-05 19:32N 35°27' E 139°45'0 0.0
2016-Feb-05 18:32N 35°27' E 139°45'0 0.0
2016-Feb-05 17:32N 35°27' E 139°45'0 0.0
2016-Feb-05 16:32N 35°27' E 139°45'0 0.1
2016-Feb-05 15:32N 35°27' E 139°45'0 0.0
2016-Feb-05 14:32N 35°27' E 139°45'0 0.1
2016-Feb-05 13:32N 35°27' E 139°45'0 0.2
2016-Feb-05 12:32N 35°26' E 139°45'0 0.0
2016-Feb-05 11:32N 35°26' E 139°45'0 0.0
2016-Feb-05 10:32N 35°26' E 139°45'0 0.0
2016-Feb-05 09:32N 35°27' E 139°45'0 0.1
2016-Feb-05 08:32N 35°27' E 139°45'0 0.0
2016-Feb-05 07:29N 35°27' E 139°45'0 0.0
2016-Feb-05 06:32N 35°27' E 139°45'0 0.0
2016-Feb-05 05:32N 35°27' E 139°45'0 0.0
2016-Feb-05 04:32N 35°27' E 139°45'0 0.0
2016-Feb-05 03:32N 35°27' E 139°45'0 0.0
2016-Feb-05 02:32N 35°27' E 139°45'0 0.0
2016-Feb-05 01:32N 35°27' E 139°45'0 0.1
2016-Feb-05 00:32N 35°26' E 139°45'1 1.3
2016-Feb-04 23:33N 35°25' E 139°46'8 8.5
2016-Feb-04 22:34N 35°17' E 139°45'9 9.3
2016-Feb-04 21:33N 35°08' E 139°46'7 7.3
2016-Feb-04 20:33N 35°02' E 139°40'7 6.8
2016-Feb-04 19:29N 34°58' E 139°32'8 8.0
2016-Feb-04 18:32N 34°54' E 139°24'  

Dump ship's entire track history